sensor_id;sensor_type;location;lat;lon;timestamp;pressure;altitude;pressure_sealevel;temperature;humidity
5146;BME280;2591;48.144;15.152;2023-03-14T00:00:23;75295.41;;;-144.65;100.00
5146;BME280;2591;48.144;15.152;2023-03-14T00:02:53;75307.66;;;-144.65;100.00
5146;BME280;2591;48.144;15.152;2023-03-14T00:05:21;75307.66;;;-144.65;100.00
5146;BME280;2591;48.144;15.152;2023-03-14T00:07:49;75311.72;;;-144.65;100.00
5146;BME280;2591;48.144;15.152;2023-03-14T00:10:17;75315.81;;;-144.65;100.00
5146;BME280;2591;48.144;15.152;2023-03-14T00:12:45;75323.94;;;-144.65;100.00
5146;BME280;2591;48.144;15.152;2023-03-14T00:15:12;75321.91;;;-144.65;100.00
5146;BME280;2591;48.144;15.152;2023-03-14T00:17:42;75330.06;;;-144.65;100.00
5146;BME280;2591;48.144;15.152;2023-03-14T00:20:12;75340.25;;;-144.65;100.00
5146;BME280;2591;48.144;15.152;2023-03-14T00:22:40;75340.25;;;-144.65;100.00
5146;BME280;2591;48.144;15.152;2023-03-14T00:25:10;75348.41;;;-144.65;100.00
5146;BME280;2591;48.144;15.152;2023-03-14T00:27:39;75354.53;;;-144.65;100.00
5146;BME280;2591;48.144;15.152;2023-03-14T00:30:07;75344.34;;;-144.65;100.00
5146;BME280;2591;48.144;15.152;2023-03-14T00:32:35;75344.34;;;-144.65;100.00
5146;BME280;2591;48.144;15.152;2023-03-14T00:35:04;75354.53;;;-144.65;100.00
5146;BME280;2591;48.144;15.152;2023-03-14T00:37:33;75356.56;;;-144.65;100.00
5146;BME280;2591;48.144;15.152;2023-03-14T00:40:01;75360.66;;;-144.65;100.00
5146;BME280;2591;48.144;15.152;2023-03-14T00:42:32;75366.75;;;-144.65;100.00
5146;BME280;2591;48.144;15.152;2023-03-14T00:45:00;75364.72;;;-144.65;100.00
5146;BME280;2591;48.144;15.152;2023-03-14T00:47:27;75370.84;;;-144.65;100.00
5146;BME280;2591;48.144;15.152;2023-03-14T00:49:55;75381.03;;;-144.65;100.00
5146;BME280;2591;48.144;15.152;2023-03-14T00:52:23;75389.19;;;-144.65;100.00
5146;BME280;2591;48.144;15.152;2023-03-14T00:54:53;75381.03;;;-144.65;100.00
5146;BME280;2591;48.144;15.152;2023-03-14T00:57:20;75389.19;;;-144.65;100.00
5146;BME280;2591;48.144;15.152;2023-03-14T00:59:48;75389.19;;;-144.65;100.00
5146;BME280;2591;48.144;15.152;2023-03-14T01:02:16;75389.19;;;-144.65;100.00
5146;BME280;2591;48.144;15.152;2023-03-14T01:04:44;75385.09;;;-144.65;100.00
5146;BME280;2591;48.144;15.152;2023-03-14T01:07:14;75389.19;;;-144.65;100.00
5146;BME280;2591;48.144;15.152;2023-03-14T01:09:42;75393.25;;;-144.65;100.00
5146;BME280;2591;48.144;15.152;2023-03-14T01:12:11;75389.19;;;-144.65;100.00
5146;BME280;2591;48.144;15.152;2023-03-14T01:14:39;75393.25;;;-144.65;100.00
5146;BME280;2591;48.144;15.152;2023-03-14T01:17:07;75401.41;;;-144.65;100.00
5146;BME280;2591;48.144;15.152;2023-03-14T01:19:34;75409.56;;;-144.65;100.00
5146;BME280;2591;48.144;15.152;2023-03-14T01:22:03;75405.50;;;-144.65;100.00
5146;BME280;2591;48.144;15.152;2023-03-14T01:24:31;75411.59;;;-144.65;100.00
5146;BME280;2591;48.144;15.152;2023-03-14T01:26:58;75421.78;;;-144.65;100.00
5146;BME280;2591;48.144;15.152;2023-03-14T01:29:28;75442.19;;;-144.65;100.00
5146;BME280;2591;48.144;15.152;2023-03-14T01:31:55;75474.78;;;-144.65;100.00
5146;BME280;2591;48.144;15.152;2023-03-14T01:34:23;75474.78;;;-144.65;100.00
5146;BME280;2591;48.144;15.152;2023-03-14T01:36:51;75458.50;;;-144.65;100.00
5146;BME280;2591;48.144;15.152;2023-03-14T01:39:19;75485.00;;;-144.65;100.00
5146;BME280;2591;48.144;15.152;2023-03-14T01:41:46;75495.19;;;-144.65;100.00
5146;BME280;2591;48.144;15.152;2023-03-14T01:44:14;75485.00;;;-144.65;100.00
5146;BME280;2591;48.144;15.152;2023-03-14T01:46:44;75470.72;;;-144.65;100.00
5146;BME280;2591;48.144;15.152;2023-03-14T01:49:16;75432.00;;;-144.65;100.00
5146;BME280;2591;48.144;15.152;2023-03-14T01:51:49;75401.41;;;-144.65;100.00
5146;BME280;2591;48.144;15.152;2023-03-14T01:54:21;75326.00;;;-144.65;100.00
5146;BME280;2591;48.144;15.152;2023-03-14T01:56:56;75307.66;;;-144.65;100.00
5146;BME280;2591;48.144;15.152;2023-03-14T01:59:25;75270.97;;;-144.65;100.00
5146;BME280;2591;48.144;15.152;2023-03-14T02:01:55;75262.81;;;-144.65;100.00
5146;BME280;2591;48.144;15.152;2023-03-14T02:04:23;75262.81;;;-144.65;100.00
5146;BME280;2591;48.144;15.152;2023-03-14T02:07:00;75260.75;;;-144.65;100.00
5146;BME280;2591;48.144;15.152;2023-03-14T02:09:30;75244.47;;;-144.65;100.00
5146;BME280;2591;48.144;15.152;2023-03-14T02:11:58;75246.50;;;-144.65;100.00
5146;BME280;2591;48.144;15.152;2023-03-14T02:14:30;75250.56;;;-144.65;100.00
5146;BME280;2591;48.144;15.152;2023-03-14T02:17:01;75242.41;;;-144.65;100.00
5146;BME280;2591;48.144;15.152;2023-03-14T02:19:52;75179.25;;;-144.65;100.00
5146;BME280;2591;48.144;15.152;2023-03-14T02:22:23;75095.66;;;-144.65;100.00
5146;BME280;2591;48.144;15.152;2023-03-14T02:24:58;75063.06;;;-144.65;97.21
5146;BME280;2591;48.144;15.152;2023-03-14T02:27:31;75067.13;;;-144.65;95.15
5146;BME280;2591;48.144;15.152;2023-03-14T02:30:02;75077.31;;;-144.65;94.39
5146;BME280;2591;48.144;15.152;2023-03-14T02:32:32;75087.50;;;-144.65;93.99
5146;BME280;2591;48.144;15.152;2023-03-14T02:35:05;75079.38;;;-144.65;93.79
5146;BME280;2591;48.144;15.152;2023-03-14T02:37:38;75038.59;;;-144.65;91.98
5146;BME280;2591;48.144;15.152;2023-03-14T02:40:09;75044.72;;;-144.65;91.15
5146;BME280;2591;48.144;15.152;2023-03-14T02:42:38;75048.78;;;-144.65;91.01
5146;BME280;2591;48.144;15.152;2023-03-14T02:45:41;75054.91;;;-144.65;91.26
5146;BME280;2591;48.144;15.152;2023-03-14T02:48:14;75046.75;;;-144.65;90.12
5146;BME280;2591;48.144;15.152;2023-03-14T02:50:43;75050.81;;;-144.65;89.90
5146;BME280;2591;48.144;15.152;2023-03-14T02:53:16;75056.94;;;-144.65;90.33
5146;BME280;2591;48.144;15.152;2023-03-14T02:55:46;75054.91;;;-144.65;90.29
5146;BME280;2591;48.144;15.152;2023-03-14T02:58:16;75075.28;;;-144.65;90.38
5146;BME280;2591;48.144;15.152;2023-03-14T03:00:44;75079.38;;;-144.65;90.76
5146;BME280;2591;48.144;15.152;2023-03-14T03:03:13;75095.66;;;-144.65;91.24
5146;BME280;2591;48.144;15.152;2023-03-14T03:05:41;75101.78;;;-144.65;91.63
5146;BME280;2591;48.144;15.152;2023-03-14T03:08:10;75120.13;;;-144.65;92.05
5146;BME280;2591;48.144;15.152;2023-03-14T03:10:38;75128.28;;;-144.65;92.42
5146;BME280;2591;48.144;15.152;2023-03-14T03:13:06;75140.50;;;-144.65;93.52
5146;BME280;2591;48.144;15.152;2023-03-14T03:15:35;75144.59;;;-144.65;94.35
5146;BME280;2591;48.144;15.152;2023-03-14T03:18:03;75146.63;;;-144.65;95.46
5146;BME280;2591;48.144;15.152;2023-03-14T03:20:31;75134.41;;;-144.65;96.16
5146;BME280;2591;48.144;15.152;2023-03-14T03:22:59;75116.06;;;-144.65;96.59
5146;BME280;2591;48.144;15.152;2023-03-14T03:25:26;75091.59;;;-144.65;96.06
5146;BME280;2591;48.144;15.152;2023-03-14T03:27:55;75046.75;;;-144.65;94.89
5146;BME280;2591;48.144;15.152;2023-03-14T03:30:23;75042.69;;;-144.65;93.35
5146;BME280;2591;48.144;15.152;2023-03-14T03:32:52;75028.41;;;-144.65;92.26
5146;BME280;2591;48.144;15.152;2023-03-14T03:35:20;75030.44;;;-144.65;91.81
5146;BME280;2591;48.144;15.152;2023-03-14T03:37:47;75032.47;;;-144.65;91.32
5146;BME280;2591;48.144;15.152;2023-03-14T03:40:15;75026.38;;;-144.65;90.97
5146;BME280;2591;48.144;15.152;2023-03-14T03:42:43;75030.44;;;-144.65;90.61
5146;BME280;2591;48.144;15.152;2023-03-14T03:45:11;75026.38;;;-144.65;90.33
5146;BME280;2591;48.144;15.152;2023-03-14T03:47:39;75030.44;;;-144.65;89.95
5146;BME280;2591;48.144;15.152;2023-03-14T03:50:09;75044.72;;;-144.65;90.24
5146;BME280;2591;48.144;15.152;2023-03-14T03:52:37;75067.13;;;-144.65;89.92
5146;BME280;2591;48.144;15.152;2023-03-14T03:55:05;75107.91;;;-144.65;91.29
5146;BME280;2591;48.144;15.152;2023-03-14T03:57:33;75124.19;;;-144.65;91.48
5146;BME280;2591;48.144;15.152;2023-03-14T04:00:01;75140.50;;;-144.65;92.42
5146;BME280;2591;48.144;15.152;2023-03-14T04:02:30;75152.75;;;-144.65;93.55
5146;BME280;2591;48.144;15.152;2023-03-14T04:04:58;75169.03;;;-144.65;94.39
5146;BME280;2591;48.144;15.152;2023-03-14T04:07:27;75205.72;;;-144.65;95.40
5146;BME280;2591;48.144;15.152;2023-03-14T04:09:55;75211.84;;;-144.65;95.83
5146;BME280;2591;48.144;15.152;2023-03-14T04:12:23;75213.88;;;-144.65;96.92
5146;BME280;2591;48.144;15.152;2023-03-14T04:14:51;75209.81;;;-144.65;97.42
5146;BME280;2591;48.144;15.152;2023-03-14T04:17:18;75209.81;;;-144.65;97.57
5146;BME280;2591;48.144;15.152;2023-03-14T04:19:48;75213.88;;;-144.65;98.12
5146;BME280;2591;48.144;15.152;2023-03-14T04:22:18;75217.97;;;-144.65;98.97
5146;BME280;2591;48.144;15.152;2023-03-14T04:24:47;75220.00;;;-144.65;99.66
5146;BME280;2591;48.144;15.152;2023-03-14T04:27:15;75217.97;;;-144.65;99.81
5146;BME280;2591;48.144;15.152;2023-03-14T04:29:43;75207.78;;;-144.65;100.00
5146;BME280;2591;48.144;15.152;2023-03-14T04:32:10;75209.81;;;-144.65;100.00
5146;BME280;2591;48.144;15.152;2023-03-14T04:34:38;75211.84;;;-144.65;100.00
5146;BME280;2591;48.144;15.152;2023-03-14T04:37:06;75226.13;;;-144.65;100.00
5146;BME280;2591;48.144;15.152;2023-03-14T04:39:34;75222.03;;;-144.65;100.00
5146;BME280;2591;48.144;15.152;2023-03-14T04:42:03;75228.16;;;-144.65;100.00
5146;BME280;2591;48.144;15.152;2023-03-14T04:44:31;75246.50;;;-144.65;100.00
5146;BME280;2591;48.144;15.152;2023-03-14T04:46:58;75252.63;;;-144.65;100.00
5146;BME280;2591;48.144;15.152;2023-03-14T04:49:26;75250.56;;;-144.65;100.00
5146;BME280;2591;48.144;15.152;2023-03-14T04:51:54;75250.56;;;-144.65;100.00
5146;BME280;2591;48.144;15.152;2023-03-14T04:54:22;75244.47;;;-144.65;100.00
5146;BME280;2591;48.144;15.152;2023-03-14T04:56:49;75242.41;;;-144.65;100.00
5146;BME280;2591;48.144;15.152;2023-03-14T04:59:18;75242.41;;;-144.65;100.00
5146;BME280;2591;48.144;15.152;2023-03-14T05:01:46;75238.34;;;-144.65;100.00
5146;BME280;2591;48.144;15.152;2023-03-14T05:04:15;75238.34;;;-144.65;100.00
5146;BME280;2591;48.144;15.152;2023-03-14T05:06:43;75238.34;;;-144.65;100.00
5146;BME280;2591;48.144;15.152;2023-03-14T05:09:10;75230.19;;;-144.65;100.00
5146;BME280;2591;48.144;15.152;2023-03-14T05:11:38;75226.13;;;-144.65;100.00
5146;BME280;2591;48.144;15.152;2023-03-14T05:14:06;75234.28;;;-144.65;100.00
5146;BME280;2591;48.144;15.152;2023-03-14T05:16:35;75232.22;;;-144.65;100.00
5146;BME280;2591;48.144;15.152;2023-03-14T05:19:03;75238.34;;;-144.65;100.00
5146;BME280;2591;48.144;15.152;2023-03-14T05:21:31;75242.41;;;-144.65;100.00
5146;BME280;2591;48.144;15.152;2023-03-14T05:23:59;75238.34;;;-144.65;100.00
5146;BME280;2591;48.144;15.152;2023-03-14T05:26:26;75234.28;;;-144.65;100.00
5146;BME280;2591;48.144;15.152;2023-03-14T05:28:54;75234.28;;;-144.65;100.00
5146;BME280;2591;48.144;15.152;2023-03-14T05:31:22;75230.19;;;-144.65;100.00
5146;BME280;2591;48.144;15.152;2023-03-14T05:33:51;75230.19;;;-144.65;100.00
5146;BME280;2591;48.144;15.152;2023-03-14T05:36:19;75230.19;;;-144.65;100.00
5146;BME280;2591;48.144;15.152;2023-03-14T05:38:47;75226.13;;;-144.65;100.00
5146;BME280;2591;48.144;15.152;2023-03-14T05:41:15;75222.03;;;-144.65;100.00
5146;BME280;2591;48.144;15.152;2023-03-14T05:43:42;75209.81;;;-144.65;100.00
5146;BME280;2591;48.144;15.152;2023-03-14T05:46:10;75197.56;;;-144.65;100.00
5146;BME280;2591;48.144;15.152;2023-03-14T05:48:38;75195.53;;;-144.65;100.00
5146;BME280;2591;48.144;15.152;2023-03-14T05:51:07;75197.56;;;-144.65;100.00
5146;BME280;2591;48.144;15.152;2023-03-14T05:53:35;75203.69;;;-144.65;100.00
5146;BME280;2591;48.144;15.152;2023-03-14T05:56:03;75201.66;;;-144.65;100.00
5146;BME280;2591;48.144;15.152;2023-03-14T05:58:31;75197.56;;;-144.65;100.00
5146;BME280;2591;48.144;15.152;2023-03-14T06:01:01;75193.50;;;-144.65;100.00
5146;BME280;2591;48.144;15.152;2023-03-14T06:03:29;75193.50;;;-144.65;100.00
5146;BME280;2591;48.144;15.152;2023-03-14T06:05:57;75205.72;;;-144.65;100.00
5146;BME280;2591;48.144;15.152;2023-03-14T06:08:27;75201.66;;;-144.65;100.00
5146;BME280;2591;48.144;15.152;2023-03-14T06:10:57;75195.53;;;-144.65;100.00
5146;BME280;2591;48.144;15.152;2023-03-14T06:13:24;75189.44;;;-144.65;100.00
5146;BME280;2591;48.144;15.152;2023-03-14T06:15:52;75185.34;;;-144.65;100.00
5146;BME280;2591;48.144;15.152;2023-03-14T06:18:20;75179.25;;;-144.65;100.00
5146;BME280;2591;48.144;15.152;2023-03-14T06:20:48;75160.88;;;-144.65;100.00
5146;BME280;2591;48.144;15.152;2023-03-14T06:23:15;75142.53;;;-144.65;100.00
5146;BME280;2591;48.144;15.152;2023-03-14T06:25:45;75132.34;;;-144.65;100.00
5146;BME280;2591;48.144;15.152;2023-03-14T06:28:13;75128.28;;;-144.65;100.00
5146;BME280;2591;48.144;15.152;2023-03-14T06:30:40;75111.97;;;-144.65;100.00
5146;BME280;2591;48.144;15.152;2023-03-14T06:33:08;75085.47;;;-144.65;100.00
5146;BME280;2591;48.144;15.152;2023-03-14T06:35:36;75075.28;;;-144.65;100.00
5146;BME280;2591;48.144;15.152;2023-03-14T06:38:04;75061.03;;;-144.65;100.00
5146;BME280;2591;48.144;15.152;2023-03-14T06:40:32;75054.91;;;-144.65;100.00
5146;BME280;2591;48.144;15.152;2023-03-14T06:43:01;75044.72;;;-144.65;100.00
5146;BME280;2591;48.144;15.152;2023-03-14T06:45:29;75032.47;;;-144.65;100.00
5146;BME280;2591;48.144;15.152;2023-03-14T06:47:56;75038.59;;;-144.65;100.00
5146;BME280;2591;48.144;15.152;2023-03-14T06:50:24;75026.38;;;-144.65;100.00
5146;BME280;2591;48.144;15.152;2023-03-14T06:52:52;75032.47;;;-144.65;100.00
5146;BME280;2591;48.144;15.152;2023-03-14T06:55:20;75030.44;;;-144.65;100.00
5146;BME280;2591;48.144;15.152;2023-03-14T06:57:48;75028.41;;;-144.65;100.00
5146;BME280;2591;48.144;15.152;2023-03-14T07:00:18;75032.47;;;-144.65;100.00
5146;BME280;2591;48.144;15.152;2023-03-14T07:02:46;75028.41;;;-144.65;100.00
5146;BME280;2591;48.144;15.152;2023-03-14T07:05:14;75038.59;;;-144.65;100.00
5146;BME280;2591;48.144;15.152;2023-03-14T07:07:41;75026.38;;;-144.65;100.00
5146;BME280;2591;48.144;15.152;2023-03-14T07:10:10;75022.28;;;-144.65;100.00
5146;BME280;2591;48.144;15.152;2023-03-14T07:12:38;75026.38;;;-144.65;100.00
5146;BME280;2591;48.144;15.152;2023-03-14T07:15:06;75022.28;;;-144.65;100.00
5146;BME280;2591;48.144;15.152;2023-03-14T07:17:45;75014.13;;;-144.65;100.00
5146;BME280;2591;48.144;15.152;2023-03-14T07:20:15;75003.94;;;-144.65;100.00
5146;BME280;2591;48.144;15.152;2023-03-14T07:22:43;74999.88;;;-144.65;100.00
5146;BME280;2591;48.144;15.152;2023-03-14T07:25:10;74989.69;;;-144.65;100.00
5146;BME280;2591;48.144;15.152;2023-03-14T07:27:38;74987.66;;;-144.65;100.00
5146;BME280;2591;48.144;15.152;2023-03-14T07:30:07;74979.50;;;-144.65;100.00
5146;BME280;2591;48.144;15.152;2023-03-14T07:32:35;74973.38;;;-144.65;100.00
5146;BME280;2591;48.144;15.152;2023-03-14T07:35:05;74971.34;;;-144.65;100.00
5146;BME280;2591;48.144;15.152;2023-03-14T07:37:33;74969.31;;;-144.65;100.00
5146;BME280;2591;48.144;15.152;2023-03-14T07:40:01;74961.16;;;-144.65;100.00
5146;BME280;2591;48.144;15.152;2023-03-14T07:42:31;74957.06;;;-144.65;100.00
5146;BME280;2591;48.144;15.152;2023-03-14T07:44:59;74944.84;;;-144.65;100.00
5146;BME280;2591;48.144;15.152;2023-03-14T07:47:27;74950.97;;;-144.65;100.00
5146;BME280;2591;48.144;15.152;2023-03-14T07:49:55;74946.88;;;-144.65;100.00
5146;BME280;2591;48.144;15.152;2023-03-14T07:52:24;74942.81;;;-144.65;100.00
5146;BME280;2591;48.144;15.152;2023-03-14T07:54:52;74940.78;;;-144.65;100.00
5146;BME280;2591;48.144;15.152;2023-03-14T07:57:20;74940.78;;;-144.65;100.00
5146;BME280;2591;48.144;15.152;2023-03-14T07:59:47;74930.56;;;-144.65;100.00
5146;BME280;2591;48.144;15.152;2023-03-14T08:02:15;74934.66;;;-144.65;100.00
5146;BME280;2591;48.144;15.152;2023-03-14T08:04:44;74936.69;;;-144.65;100.00
5146;BME280;2591;48.144;15.152;2023-03-14T08:07:12;74942.81;;;-144.65;100.00
5146;BME280;2591;48.144;15.152;2023-03-14T08:09:41;74940.78;;;-144.65;100.00
5146;BME280;2591;48.144;15.152;2023-03-14T08:12:09;74936.69;;;-144.65;100.00
5146;BME280;2591;48.144;15.152;2023-03-14T08:14:37;74940.78;;;-144.65;100.00
5146;BME280;2591;48.144;15.152;2023-03-14T08:17:04;74938.72;;;-144.65;100.00
5146;BME280;2591;48.144;15.152;2023-03-14T08:19:34;74936.69;;;-144.65;100.00
5146;BME280;2591;48.144;15.152;2023-03-14T08:22:02;74936.69;;;-144.65;100.00
5146;BME280;2591;48.144;15.152;2023-03-14T08:24:30;74928.53;;;-144.65;100.00
5146;BME280;2591;48.144;15.152;2023-03-14T08:27:00;74928.53;;;-144.65;100.00
5146;BME280;2591;48.144;15.152;2023-03-14T08:29:27;74924.47;;;-144.65;100.00
5146;BME280;2591;48.144;15.152;2023-03-14T08:31:55;74924.47;;;-144.65;100.00
5146;BME280;2591;48.144;15.152;2023-03-14T08:34:23;74918.34;;;-144.65;100.00
5146;BME280;2591;48.144;15.152;2023-03-14T08:36:51;74908.16;;;-144.65;100.00
5146;BME280;2591;48.144;15.152;2023-03-14T08:39:19;74897.97;;;-144.65;100.00
5146;BME280;2591;48.144;15.152;2023-03-14T08:41:47;74891.84;;;-144.65;100.00
5146;BME280;2591;48.144;15.152;2023-03-14T08:44:18;74885.75;;;-144.65;100.00
5146;BME280;2591;48.144;15.152;2023-03-14T08:46:46;74875.56;;;-144.65;100.00
5146;BME280;2591;48.144;15.152;2023-03-14T08:49:14;74863.31;;;-144.65;100.00
5146;BME280;2591;48.144;15.152;2023-03-14T08:51:42;74859.25;;;-144.65;100.00
5146;BME280;2591;48.144;15.152;2023-03-14T08:54:10;74844.97;;;-144.65;100.00
5146;BME280;2591;48.144;15.152;2023-03-14T08:56:38;74838.88;;;-144.65;100.00
5146;BME280;2591;48.144;15.152;2023-03-14T08:59:07;74834.78;;;-144.65;100.00
5146;BME280;2591;48.144;15.152;2023-03-14T09:01:38;74830.72;;;-144.65;100.00
5146;BME280;2591;48.144;15.152;2023-03-14T09:04:06;74830.72;;;-144.65;100.00
5146;BME280;2591;48.144;15.152;2023-03-14T09:06:36;74816.44;;;-144.65;100.00
5146;BME280;2591;48.144;15.152;2023-03-14T09:09:04;74806.25;;;-144.65;100.00
5146;BME280;2591;48.144;15.152;2023-03-14T09:11:32;74806.25;;;-144.65;100.00
5146;BME280;2591;48.144;15.152;2023-03-14T09:14:00;74826.63;;;-144.65;100.00
5146;BME280;2591;48.144;15.152;2023-03-14T09:16:28;74818.47;;;-144.65;100.00
5146;BME280;2591;48.144;15.152;2023-03-14T09:18:57;74818.47;;;-144.65;100.00
5146;BME280;2591;48.144;15.152;2023-03-14T09:21:26;74814.41;;;-144.65;100.00
5146;BME280;2591;48.144;15.152;2023-03-14T09:23:54;74812.38;;;-144.65;100.00
5146;BME280;2591;48.144;15.152;2023-03-14T09:26:22;74806.25;;;-144.65;100.00
5146;BME280;2591;48.144;15.152;2023-03-14T09:28:50;74814.41;;;-144.65;100.00
5146;BME280;2591;48.144;15.152;2023-03-14T09:31:18;74818.47;;;-144.65;100.00
5146;BME280;2591;48.144;15.152;2023-03-14T09:33:45;74806.25;;;-144.65;100.00
5146;BME280;2591;48.144;15.152;2023-03-14T09:36:15;74798.09;;;-144.65;100.00
5146;BME280;2591;48.144;15.152;2023-03-14T09:38:43;74789.94;;;-144.65;100.00
5146;BME280;2591;48.144;15.152;2023-03-14T09:41:15;74779.75;;;-144.65;100.00
5146;BME280;2591;48.144;15.152;2023-03-14T09:43:45;74767.53;;;-144.65;100.00
5146;BME280;2591;48.144;15.152;2023-03-14T09:46:14;74765.50;;;-144.65;100.00
5146;BME280;2591;48.144;15.152;2023-03-14T09:48:43;74761.41;;;-144.65;100.00
5146;BME280;2591;48.144;15.152;2023-03-14T09:51:13;74753.28;;;-144.65;94.30
5146;BME280;2591;48.144;15.152;2023-03-14T09:53:44;74765.50;;;-144.65;91.76
5146;BME280;2591;48.144;15.152;2023-03-14T09:56:15;74767.53;;;-144.65;89.39
5146;BME280;2591;48.144;15.152;2023-03-14T09:58:48;74775.69;;;-144.65;89.86
5146;BME280;2591;48.144;15.152;2023-03-14T10:01:23;74773.66;;;-144.65;90.40
5146;BME280;2591;48.144;15.152;2023-03-14T10:03:54;74775.69;;;-144.65;90.24
5146;BME280;2591;48.144;15.152;2023-03-14T10:06:25;74787.91;;;-144.65;88.66
5146;BME280;2591;48.144;15.152;2023-03-14T10:08:55;74794.03;;;-144.65;88.43
5146;BME280;2591;48.144;15.152;2023-03-14T10:11:24;74798.09;;;-144.65;88.85
5146;BME280;2591;48.144;15.152;2023-03-14T10:14:05;74798.09;;;-144.65;86.79
5146;BME280;2591;48.144;15.152;2023-03-14T10:16:34;74808.28;;;-144.65;85.40
5146;BME280;2591;48.144;15.152;2023-03-14T10:19:05;74810.34;;;-144.65;85.48
5146;BME280;2591;48.144;15.152;2023-03-14T10:21:37;74810.34;;;-144.65;85.57
5146;BME280;2591;48.144;15.152;2023-03-14T10:24:21;74804.22;;;-144.65;85.35
5146;BME280;2591;48.144;15.152;2023-03-14T10:26:52;74802.19;;;-144.65;85.25
5146;BME280;2591;48.144;15.152;2023-03-14T10:29:20;74798.09;;;-144.65;86.29
5146;BME280;2591;48.144;15.152;2023-03-14T10:31:52;74796.06;;;-144.65;87.12
5146;BME280;2591;48.144;15.152;2023-03-14T10:34:23;74798.09;;;-144.65;87.71
5146;BME280;2591;48.144;15.152;2023-03-14T10:36:53;74802.19;;;-144.65;87.58
5146;BME280;2591;48.144;15.152;2023-03-14T10:42:18;74806.25;;;-144.65;86.09
5146;BME280;2591;48.144;15.152;2023-03-14T10:44:51;74816.44;;;-144.65;86.18
5146;BME280;2591;48.144;15.152;2023-03-14T10:47:23;74822.56;;;-144.65;86.70
5146;BME280;2591;48.144;15.152;2023-03-14T10:49:51;74826.63;;;-144.65;85.96
5146;BME280;2591;48.144;15.152;2023-03-14T10:52:21;74838.88;;;-144.65;86.08
5146;BME280;2591;48.144;15.152;2023-03-14T10:55:09;74853.13;;;-144.65;86.52
5146;BME280;2591;48.144;15.152;2023-03-14T10:57:38;74867.41;;;-144.65;86.88
5146;BME280;2591;48.144;15.152;2023-03-14T11:00:14;74867.41;;;-144.65;87.19
5146;BME280;2591;48.144;15.152;2023-03-14T11:02:51;74867.41;;;-144.65;88.35
5146;BME280;2591;48.144;15.152;2023-03-14T11:05:28;74869.44;;;-144.65;89.57
5146;BME280;2591;48.144;15.152;2023-03-14T11:08:01;74863.31;;;-144.65;88.82
5146;BME280;2591;48.144;15.152;2023-03-14T11:10:33;74859.25;;;-144.65;88.28
5146;BME280;2591;48.144;15.152;2023-03-14T11:13:12;74871.47;;;-144.65;89.11
5146;BME280;2591;48.144;15.152;2023-03-14T11:15:51;74875.56;;;-144.65;90.25
5146;BME280;2591;48.144;15.152;2023-03-14T11:18:48;74883.69;;;-144.65;90.87
5146;BME280;2591;48.144;15.152;2023-03-14T11:21:22;74887.78;;;-144.65;91.14
5146;BME280;2591;48.144;15.152;2023-03-14T11:24:03;74887.78;;;-144.65;91.25
5146;BME280;2591;48.144;15.152;2023-03-14T11:26:42;74885.75;;;-144.65;91.52
5146;BME280;2591;48.144;15.152;2023-03-14T11:29:20;74887.78;;;-144.65;91.74
5146;BME280;2591;48.144;15.152;2023-03-14T11:31:48;74887.78;;;-144.65;91.74
5146;BME280;2591;48.144;15.152;2023-03-14T11:34:17;74893.91;;;-144.65;92.69
5146;BME280;2591;48.144;15.152;2023-03-14T11:36:51;74895.94;;;-144.65;93.13
5146;BME280;2591;48.144;15.152;2023-03-14T11:39:21;74893.91;;;-144.65;93.28
5146;BME280;2591;48.144;15.152;2023-03-14T11:41:52;74895.94;;;-144.65;93.94
5146;BME280;2591;48.144;15.152;2023-03-14T11:44:23;74883.69;;;-144.65;93.90
5146;BME280;2591;48.144;15.152;2023-03-14T11:46:59;74875.56;;;-144.65;92.93
5146;BME280;2591;48.144;15.152;2023-03-14T11:49:34;74875.56;;;-144.65;93.27
5146;BME280;2591;48.144;15.152;2023-03-14T11:52:09;74855.16;;;-144.65;93.79
5146;BME280;2591;48.144;15.152;2023-03-14T11:54:41;74842.94;;;-144.65;93.44
5146;BME280;2591;48.144;15.152;2023-03-14T11:57:14;74820.53;;;-144.65;92.39
5146;BME280;2591;48.144;15.152;2023-03-14T11:59:50;74806.25;;;-144.65;91.17
5146;BME280;2591;48.144;15.152;2023-03-14T12:02:24;74796.06;;;-144.65;91.79
5146;BME280;2591;48.144;15.152;2023-03-14T12:08:26;74775.69;;;-144.65;89.59
5146;BME280;2591;48.144;15.152;2023-03-14T12:11:03;74767.53;;;-144.65;88.20
5146;BME280;2591;48.144;15.152;2023-03-14T12:13:36;74759.38;;;-144.65;87.99
5146;BME280;2591;48.144;15.152;2023-03-14T12:16:07;74761.41;;;-144.65;87.32
5146;BME280;2591;48.144;15.152;2023-03-14T12:18:46;74749.19;;;-144.65;87.52
5146;BME280;2591;48.144;15.152;2023-03-14T12:21:15;74745.13;;;-144.65;86.16
5146;BME280;2591;48.144;15.152;2023-03-14T12:23:45;74736.97;;;-144.65;86.37
5146;BME280;2591;48.144;15.152;2023-03-14T12:26:18;74743.06;;;-144.65;86.36
5146;BME280;2591;48.144;15.152;2023-03-14T12:28:50;74741.03;;;-144.65;86.22
5146;BME280;2591;48.144;15.152;2023-03-14T12:31:38;74728.81;;;-144.65;85.71
5146;BME280;2591;48.144;15.152;2023-03-14T12:34:30;74732.88;;;-144.65;85.90
5146;BME280;2591;48.144;15.152;2023-03-14T12:37:21;74736.97;;;-144.65;85.38
5146;BME280;2591;48.144;15.152;2023-03-14T12:40:13;74739.00;;;-144.65;85.99
5146;BME280;2591;48.144;15.152;2023-03-14T12:42:57;74728.81;;;-144.65;85.79
5146;BME280;2591;48.144;15.152;2023-03-14T12:45:28;74732.88;;;-144.65;87.23
5146;BME280;2591;48.144;15.152;2023-03-14T12:48:05;74728.81;;;-144.65;86.92
5146;BME280;2591;48.144;15.152;2023-03-14T12:50:38;74724.75;;;-144.65;86.70
5146;BME280;2591;48.144;15.152;2023-03-14T12:53:38;74716.59;;;-144.65;85.73
5146;BME280;2591;48.144;15.152;2023-03-14T12:56:17;74712.50;;;-144.65;85.36
5146;BME280;2591;48.144;15.152;2023-03-14T12:59:03;74700.28;;;-144.65;84.62
5146;BME280;2591;48.144;15.152;2023-03-14T13:01:34;74700.28;;;-144.65;84.40
5146;BME280;2591;48.144;15.152;2023-03-14T13:04:04;74700.28;;;-144.65;84.24